Terminal Aerodrome Forecast
Issued by NWS

Home | Current Version | Previous Version | Text Only | Print | Product List | Glossary Off
Versions: 1 2 3 4 5 6 7 8 9 10 11 12 13 14 15 16 17 18 19 20

000
FTUS43 KGRB 151442 AAA
TAFMTW
TAF AMD
KMTW 151442Z 1515/1612 22010KT 3SM -RADZ BR OVC008
      TEMPO 1515/1518 1 1/2SM -RADZ BR BKN005
     FM151800 28012G22KT P6SM BKN010
     FM152100 28015G25KT P6SM BKN030
     FM160200 29014G24KT P6SM BKN040=

USA.gov is the U.S. government's official web portal to all federal, state and local government web resources and services.